Grand Saline, Texas
Current Conditions -  °F | °C
As of 11:55 AM on Saturday 20 Dec 2014 (Local Time) from KJDD Reporting Station
Haze Haze  
Wind Chill: 48°   Ceiling: 600
Heat Index: 48°   Visibility: 2.5mi
Dew Point: 46°   Wind: 0mph
Humidity: 93%   Direction: NA
Pressure: 30.25"   Gusts: NA
Location:  32.67°N, 95.71°W
Report Text: KJDD 201755Z AUTO 00000KT 2 1/2SM BR OVC006 09/08 A3025 RMK AO2
Loading
Personal Weather Stations






























Interactive Weather Map New forecast layout! Learn more

10-Day Weather Forecast

Advertisements
Track Severe Weather on mobile